createdAt,value
2019-01-26T00:02:15.916Z,10.70
2019-01-26T00:04:43.554Z,10.70
2019-01-26T00:07:11.228Z,10.80
2019-01-26T00:09:39.049Z,10.90
2019-01-26T00:12:06.239Z,10.90
2019-01-26T00:14:33.365Z,10.90
2019-01-26T00:17:00.566Z,10.90
2019-01-26T00:19:27.678Z,10.70
2019-01-26T00:21:55.496Z,10.70
2019-01-26T00:24:22.618Z,10.60
2019-01-26T00:26:49.402Z,10.60
2019-01-26T00:29:16.094Z,10.70
2019-01-26T00:31:42.756Z,10.70
2019-01-26T00:34:09.979Z,10.70
2019-01-26T00:36:37.777Z,10.60
2019-01-26T00:39:06.570Z,10.50
2019-01-26T00:41:34.335Z,10.50
2019-01-26T00:44:01.438Z,10.50
2019-01-26T00:46:28.691Z,10.60
2019-01-26T00:48:55.715Z,10.50
2019-01-26T00:51:22.812Z,10.50
2019-01-26T00:53:49.995Z,10.40
2019-01-26T00:56:17.171Z,10.40
2019-01-26T00:58:44.237Z,10.50
2019-01-26T01:01:12.053Z,10.60
2019-01-26T01:03:39.211Z,10.60
2019-01-26T01:06:06.400Z,10.70
2019-01-26T01:08:34.234Z,10.40
2019-01-26T01:11:02.003Z,10.40
2019-01-26T01:13:29.065Z,10.30
2019-01-26T01:15:56.264Z,10.20
2019-01-26T01:18:24.168Z,10.20
2019-01-26T01:20:51.303Z,10.50
2019-01-26T01:23:18.429Z,10.50
2019-01-26T01:25:45.359Z,10.30
2019-01-26T01:28:12.426Z,9.80
2019-01-26T01:30:40.191Z,9.50
2019-01-26T01:33:07.405Z,9.60
2019-01-26T01:35:34.440Z,9.80
2019-01-26T01:38:01.487Z,10.00
2019-01-26T01:40:29.323Z,10.10
2019-01-26T01:42:56.449Z,10.00
2019-01-26T01:45:23.596Z,10.00
2019-01-26T01:47:51.360Z,10.10
2019-01-26T01:50:18.385Z,10.30
2019-01-26T01:52:45.796Z,10.30
2019-01-26T01:55:12.871Z,10.40
2019-01-26T01:57:39.995Z,10.30
2019-01-26T02:00:07.693Z,10.30
2019-01-26T02:02:35.515Z,10.40
2019-01-26T02:05:02.544Z,10.50
2019-01-26T02:07:30.314Z,10.20
2019-01-26T02:09:57.454Z,9.90
2019-01-26T02:12:24.459Z,9.50
2019-01-26T02:14:51.630Z,9.60
2019-01-26T02:17:19.439Z,9.70
2019-01-26T02:19:46.627Z,9.80
2019-01-26T02:22:14.787Z,9.80
2019-01-26T02:24:42.539Z,9.60
2019-01-26T02:27:10.148Z,9.80
2019-01-26T02:29:37.283Z,10.20
2019-01-26T02:32:04.019Z,10.20
2019-01-26T02:34:31.871Z,10.30
2019-01-26T02:36:58.940Z,10.40
2019-01-26T02:39:26.105Z,10.60
2019-01-26T02:41:53.005Z,10.40
2019-01-26T02:44:20.128Z,10.20
2019-01-26T02:46:47.277Z,9.90
2019-01-26T02:49:14.527Z,10.00
2019-01-26T02:51:41.651Z,10.10
2019-01-26T02:54:08.338Z,10.10
2019-01-26T02:56:35.491Z,10.20
2019-01-26T02:59:02.357Z,10.20
2019-01-26T03:01:29.546Z,10.00
2019-01-26T03:03:56.560Z,10.10
2019-01-26T03:06:23.613Z,9.90
2019-01-26T03:08:51.539Z,10.10
2019-01-26T03:11:18.646Z,10.10
2019-01-26T03:13:45.727Z,10.20
2019-01-26T03:16:12.503Z,10.20
2019-01-26T03:18:39.593Z,9.80
2019-01-26T03:21:06.313Z,9.90
2019-01-26T03:23:33.471Z,9.70
2019-01-26T03:26:00.625Z,9.50
2019-01-26T03:28:28.317Z,9.60
2019-01-26T03:30:55.014Z,9.80
2019-01-26T03:33:22.026Z,10.10
2019-01-26T03:35:49.180Z,10.00
2019-01-26T03:38:15.838Z,9.80
2019-01-26T03:40:43.012Z,9.80
2019-01-26T03:43:09.678Z,9.90
2019-01-26T03:45:36.765Z,10.00
2019-01-26T03:48:03.481Z,10.30
2019-01-26T03:50:30.622Z,10.30
2019-01-26T03:52:57.292Z,10.30
2019-01-26T03:55:24.499Z,10.50
2019-01-26T03:57:51.517Z,10.40
2019-01-26T04:00:18.695Z,10.60
2019-01-26T04:02:45.860Z,10.60
2019-01-26T04:05:12.969Z,10.50
2019-01-26T04:07:40.684Z,10.30
2019-01-26T04:10:08.459Z,10.20
2019-01-26T04:12:36.079Z,9.90
2019-01-26T04:15:02.757Z,9.90
2019-01-26T04:17:29.862Z,10.00
2019-01-26T04:19:57.017Z,10.10
2019-01-26T04:22:24.143Z,10.30
2019-01-26T04:24:51.223Z,10.30
2019-01-26T04:27:18.362Z,10.20
2019-01-26T04:29:45.528Z,10.20
2019-01-26T04:32:12.256Z,10.20
2019-01-26T04:34:39.279Z,10.20
2019-01-26T04:37:06.436Z,10.10
2019-01-26T04:39:33.600Z,9.70
2019-01-26T04:42:00.294Z,9.60
2019-01-26T04:44:27.982Z,9.70
2019-01-26T04:46:54.655Z,9.80
2019-01-26T04:49:21.843Z,10.10
2019-01-26T04:51:48.964Z,10.20
2019-01-26T04:54:15.985Z,10.30
2019-01-26T04:56:43.576Z,10.30
2019-01-26T04:59:10.700Z,10.30
2019-01-26T05:01:37.881Z,10.30
2019-01-26T05:04:04.981Z,10.20
2019-01-26T05:06:31.683Z,10.20
2019-01-26T05:08:58.841Z,10.30
2019-01-26T05:11:26.703Z,10.40
2019-01-26T05:13:54.478Z,10.40
2019-01-26T05:16:21.600Z,10.50
2019-01-26T05:18:49.518Z,10.50
2019-01-26T05:21:16.247Z,10.40
2019-01-26T05:23:43.330Z,10.30
2019-01-26T05:26:11.141Z,10.40
2019-01-26T05:28:38.252Z,10.40
2019-01-26T05:31:04.912Z,10.50
2019-01-26T05:33:31.674Z,10.40
2019-01-26T05:35:58.788Z,10.30
2019-01-26T05:38:25.804Z,10.30
2019-01-26T05:40:52.973Z,10.60
2019-01-26T05:43:20.808Z,10.60
2019-01-26T05:45:48.552Z,10.40
2019-01-26T05:48:15.661Z,10.40
2019-01-26T05:50:42.780Z,10.20
2019-01-26T05:53:09.975Z,10.00
2019-01-26T05:55:37.862Z,10.00
2019-01-26T05:58:05.632Z,10.10
2019-01-26T06:00:32.940Z,10.20
2019-01-26T06:02:59.736Z,10.30
2019-01-26T06:05:26.834Z,10.10
2019-01-26T06:07:53.976Z,10.00
2019-01-26T06:10:21.213Z,9.90
2019-01-26T06:12:48.309Z,9.90
2019-01-26T06:15:15.040Z,10.00
2019-01-26T06:17:42.953Z,10.00
2019-01-26T06:20:09.632Z,10.20
2019-01-26T06:22:36.782Z,10.20
2019-01-26T06:25:03.941Z,10.20
2019-01-26T06:27:31.740Z,9.90
2019-01-26T06:29:58.401Z,9.80
2019-01-26T06:32:25.150Z,9.80
2019-01-26T06:34:53.000Z,9.60
2019-01-26T06:37:20.089Z,9.50
2019-01-26T06:39:47.343Z,9.70
2019-01-26T06:42:14.499Z,9.90
2019-01-26T06:44:41.663Z,9.80
2019-01-26T06:47:08.780Z,9.70
2019-01-26T06:49:35.936Z,9.70
2019-01-26T06:52:02.753Z,9.70
2019-01-26T06:54:30.493Z,9.70
2019-01-26T06:56:57.189Z,9.80
2019-01-26T06:59:24.373Z,9.90
2019-01-26T07:01:51.159Z,9.90
2019-01-26T07:04:17.873Z,9.80
2019-01-26T07:06:44.553Z,9.80
2019-01-26T07:09:12.254Z,9.80
2019-01-26T07:11:39.365Z,10.00
2019-01-26T07:14:07.208Z,10.00
2019-01-26T07:16:33.989Z,10.10
2019-01-26T07:19:01.159Z,10.20
2019-01-26T07:21:27.870Z,10.20
2019-01-26T07:23:55.045Z,10.40
2019-01-26T07:26:21.682Z,10.50
2019-01-26T07:28:48.819Z,10.50
2019-01-26T07:31:15.559Z,10.50
2019-01-26T07:33:42.706Z,10.70
2019-01-26T07:36:09.398Z,10.80
2019-01-26T07:38:36.603Z,10.70
2019-01-26T07:41:03.779Z,10.70
2019-01-26T07:43:30.933Z,10.80
2019-01-26T07:45:58.553Z,10.80
2019-01-26T07:48:25.269Z,10.70
2019-01-26T07:50:52.336Z,10.60
2019-01-26T07:53:19.430Z,10.60
2019-01-26T07:55:46.227Z,10.70
2019-01-26T07:58:13.366Z,10.90
2019-01-26T08:00:40.561Z,11.00
2019-01-26T08:03:07.739Z,11.00
2019-01-26T08:05:34.389Z,10.90
2019-01-26T08:08:02.035Z,10.90
2019-01-26T08:10:28.713Z,11.00
2019-01-26T08:12:56.539Z,11.00
2019-01-26T08:15:23.639Z,11.00
2019-01-26T08:17:50.688Z,11.00
2019-01-26T08:20:17.861Z,10.90
2019-01-26T08:22:44.991Z,10.90
2019-01-26T08:25:12.631Z,11.00
2019-01-26T08:27:39.751Z,11.20
2019-01-26T08:30:06.491Z,11.30
2019-01-26T08:32:33.260Z,11.00
2019-01-26T08:35:00.174Z,10.80
2019-01-26T08:37:26.883Z,11.00
2019-01-26T08:39:53.611Z,11.10
2019-01-26T08:42:20.775Z,11.10
2019-01-26T08:44:48.024Z,11.00
2019-01-26T08:47:14.673Z,10.90
2019-01-26T08:49:41.394Z,10.80
2019-01-26T08:52:08.541Z,10.80
2019-01-26T08:54:35.585Z,10.90
2019-01-26T08:57:02.286Z,11.00
2019-01-26T08:59:29.380Z,11.10
2019-01-26T09:01:56.406Z,10.80
2019-01-26T09:04:23.576Z,10.70
2019-01-26T09:06:50.626Z,10.80
2019-01-26T09:09:17.807Z,10.90
2019-01-26T09:11:44.933Z,10.90
2019-01-26T09:14:12.100Z,10.80
2019-01-26T09:16:39.231Z,10.80
2019-01-26T09:19:05.993Z,11.00
2019-01-26T09:21:32.647Z,11.40
2019-01-26T09:23:59.755Z,11.60
2019-01-26T09:26:26.525Z,11.60
2019-01-26T09:28:53.522Z,11.30
2019-01-26T09:31:20.602Z,11.20
2019-01-26T09:33:47.529Z,11.20
2019-01-26T09:36:14.264Z,11.10
2019-01-26T09:38:40.950Z,10.90
2019-01-26T09:41:08.048Z,11.00
2019-01-26T09:43:35.115Z,11.30
2019-01-26T09:46:01.821Z,11.20
2019-01-26T09:48:28.558Z,11.30
2019-01-26T09:50:55.652Z,11.40
2019-01-26T09:53:22.354Z,11.50
2019-01-26T09:55:49.113Z,11.30
2019-01-26T09:58:16.252Z,11.50
2019-01-26T10:00:43.301Z,11.50
2019-01-26T10:03:10.466Z,11.40
2019-01-26T10:05:37.177Z,11.30
2019-01-26T10:08:04.244Z,11.20
2019-01-26T10:10:31.441Z,11.40
2019-01-26T10:12:58.157Z,11.30
2019-01-26T10:15:25.188Z,11.50
2019-01-26T10:17:52.362Z,11.60
2019-01-26T10:20:19.521Z,11.50
2019-01-26T10:22:46.650Z,11.70
2019-01-26T10:25:13.829Z,11.90
2019-01-26T10:27:40.693Z,12.00
2019-01-26T10:30:07.893Z,12.10
2019-01-26T10:32:34.936Z,12.20
2019-01-26T10:35:02.165Z,12.40
2019-01-26T10:37:28.905Z,12.40
2019-01-26T10:39:55.566Z,12.20
2019-01-26T10:42:22.613Z,12.20
2019-01-26T10:44:49.831Z,12.20
2019-01-26T10:47:16.960Z,12.40
2019-01-26T10:49:44.080Z,12.40
2019-01-26T10:52:10.802Z,11.80
2019-01-26T10:54:38.642Z,11.30
2019-01-26T10:57:05.389Z,11.40
2019-01-26T10:59:32.495Z,11.80
2019-01-26T11:01:59.498Z,12.30
2019-01-26T11:04:26.267Z,12.70
2019-01-26T11:06:52.989Z,12.90
2019-01-26T11:09:20.149Z,12.90
2019-01-26T11:11:46.920Z,12.80
2019-01-26T11:14:13.582Z,12.80
2019-01-26T11:16:40.355Z,12.70
2019-01-26T11:19:07.931Z,12.40
2019-01-26T11:21:35.496Z,12.20
2019-01-26T11:24:02.269Z,11.90
2019-01-26T11:26:28.954Z,11.80
2019-01-26T11:28:56.023Z,11.90
2019-01-26T11:31:22.773Z,12.10
2019-01-26T11:33:49.918Z,12.30
2019-01-26T11:36:17.111Z,12.10
2019-01-26T11:38:44.399Z,12.10
2019-01-26T11:41:11.143Z,12.40
2019-01-26T11:43:37.841Z,12.30
2019-01-26T11:46:04.491Z,12.10
2019-01-26T11:48:31.320Z,12.20
2019-01-26T11:50:58.420Z,12.20
2019-01-26T11:53:25.479Z,12.20
2019-01-26T11:55:52.622Z,12.20
2019-01-26T11:58:19.692Z,12.30
2019-01-26T12:00:46.855Z,12.30
2019-01-26T12:03:13.961Z,12.20
2019-01-26T12:05:40.661Z,12.20
2019-01-26T12:08:07.770Z,12.10
2019-01-26T12:10:35.148Z,12.50
2019-01-26T12:13:02.269Z,12.70
2019-01-26T12:15:29.326Z,12.90
2019-01-26T12:17:56.465Z,12.70
2019-01-26T12:20:23.496Z,12.30
2019-01-26T12:22:50.559Z,12.20
2019-01-26T12:25:17.269Z,12.10
2019-01-26T12:27:44.351Z,12.10
2019-01-26T12:30:11.069Z,12.10
2019-01-26T12:32:37.781Z,12.00
2019-01-26T12:35:04.511Z,12.10
2019-01-26T12:37:31.186Z,12.20
2019-01-26T12:39:58.386Z,12.50
2019-01-26T12:42:25.492Z,12.50
2019-01-26T12:44:52.222Z,12.70
2019-01-26T12:47:18.867Z,13.00
2019-01-26T12:49:46.020Z,12.80
2019-01-26T12:52:13.073Z,12.90
2019-01-26T12:54:39.730Z,13.00
2019-01-26T12:57:06.983Z,12.90
2019-01-26T12:59:34.135Z,12.70
2019-01-26T13:02:00.829Z,12.60
2019-01-26T13:04:28.078Z,12.70
2019-01-26T13:06:55.172Z,12.70
2019-01-26T13:09:22.989Z,12.50
2019-01-26T13:11:50.220Z,12.10
2019-01-26T13:14:17.988Z,12.20
2019-01-26T13:16:45.107Z,12.40
2019-01-26T13:19:12.319Z,12.60
2019-01-26T13:21:39.902Z,13.00
2019-01-26T13:24:06.628Z,13.10
2019-01-26T13:26:33.710Z,12.90
2019-01-26T13:29:00.856Z,12.90
2019-01-26T13:31:28.035Z,13.00
2019-01-26T13:33:55.160Z,13.20
2019-01-26T13:36:22.315Z,13.10
2019-01-26T13:38:50.882Z,12.60
2019-01-26T13:41:17.587Z,12.30
2019-01-26T13:43:44.781Z,12.00
2019-01-26T13:46:11.928Z,12.40
2019-01-26T13:48:39.755Z,12.70
2019-01-26T13:51:12.962Z,12.70
2019-01-26T13:53:39.502Z,12.80
2019-01-26T13:56:03.499Z,13.00
2019-01-26T13:58:30.625Z,12.70
2019-01-26T14:00:57.306Z,12.70
2019-01-26T14:03:25.309Z,12.80
2019-01-26T14:05:52.027Z,12.50
2019-01-26T14:08:19.213Z,12.40
2019-01-26T14:10:46.432Z,12.30
2019-01-26T14:13:13.528Z,12.10
2019-01-26T14:15:40.226Z,12.30
2019-01-26T14:18:07.336Z,11.90
2019-01-26T14:20:34.022Z,11.90
2019-01-26T14:23:00.744Z,11.50
2019-01-26T14:25:27.473Z,11.60
2019-01-26T14:27:54.555Z,11.70
2019-01-26T14:30:21.275Z,11.60
2019-01-26T14:32:52.475Z,12.00
2019-01-26T14:35:16.316Z,11.20
2019-01-26T14:37:43.013Z,11.20
2019-01-26T14:40:10.145Z,11.30
2019-01-26T14:42:37.311Z,11.10
2019-01-26T14:45:04.444Z,10.90
2019-01-26T14:50:23.356Z,11.10
2019-01-26T14:52:50.489Z,11.80
2019-01-26T14:55:17.539Z,12.10
2019-01-26T14:57:44.571Z,12.60
2019-01-26T15:00:11.620Z,12.20
2019-01-26T15:02:38.819Z,11.90
2019-01-26T15:05:05.935Z,11.60
2019-01-26T15:07:32.980Z,11.60
2019-01-26T15:09:59.668Z,11.80
2019-01-26T15:12:26.911Z,11.90
2019-01-26T15:14:53.560Z,11.70
2019-01-26T15:17:20.263Z,11.60
2019-01-26T15:19:47.382Z,11.60
2019-01-26T15:22:14.071Z,11.70
2019-01-26T15:24:40.726Z,11.20
2019-01-26T15:27:07.496Z,10.80
2019-01-26T15:29:36.695Z,10.90
2019-01-26T15:32:03.907Z,11.00
2019-01-26T15:34:31.071Z,11.10
2019-01-26T15:36:58.200Z,11.20
2019-01-26T15:39:25.337Z,11.20
2019-01-26T15:41:52.046Z,11.50
2019-01-26T15:44:19.107Z,11.20
2019-01-26T15:46:46.266Z,10.90
2019-01-26T15:49:13.408Z,10.90
2019-01-26T15:51:41.082Z,10.90
2019-01-26T15:54:08.260Z,11.30
2019-01-26T15:56:35.406Z,11.90
2019-01-26T15:59:02.148Z,12.10
2019-01-26T16:01:29.799Z,12.40
2019-01-26T16:03:56.926Z,12.50
2019-01-26T16:06:23.646Z,12.10
2019-01-26T16:08:50.719Z,12.20
2019-01-26T16:11:17.412Z,12.60
2019-01-26T16:13:44.178Z,12.80
2019-01-26T16:16:11.257Z,12.60
2019-01-26T16:18:38.604Z,12.10
2019-01-26T16:21:05.802Z,12.10
2019-01-26T16:23:32.508Z,11.70
2019-01-26T16:25:59.377Z,11.70
2019-01-26T16:28:26.493Z,12.00
2019-01-26T16:30:53.689Z,12.20
2019-01-26T16:33:21.425Z,12.70
2019-01-26T16:35:49.195Z,12.80
2019-01-26T16:38:16.292Z,12.70
2019-01-26T16:40:42.953Z,12.70
2019-01-26T16:43:10.160Z,12.60
2019-01-26T16:45:37.786Z,12.20
2019-01-26T16:48:04.639Z,12.10
2019-01-26T16:50:31.765Z,12.20
2019-01-26T16:52:58.898Z,12.30
2019-01-26T16:55:26.154Z,12.70
2019-01-26T16:57:53.397Z,13.00
2019-01-26T17:00:20.457Z,13.10
2019-01-26T17:02:48.170Z,13.20
2019-01-26T17:05:16.016Z,13.10
2019-01-26T17:07:43.110Z,13.00
2019-01-26T17:10:10.853Z,13.00
2019-01-26T17:12:38.081Z,13.10
2019-01-26T17:15:05.770Z,13.10
2019-01-26T17:17:32.897Z,13.30
2019-01-26T17:20:02.310Z,13.50
2019-01-26T17:22:31.062Z,13.70
2019-01-26T17:24:58.855Z,13.80
2019-01-26T17:27:25.958Z,13.70
2019-01-26T17:30:09.324Z,13.50
2019-01-26T17:32:28.155Z,13.30
2019-01-26T17:34:55.828Z,13.40
2019-01-26T17:37:22.963Z,13.30
2019-01-26T17:39:49.634Z,13.20
2019-01-26T17:42:16.432Z,12.90
2019-01-26T17:44:43.501Z,12.90
2019-01-26T17:47:10.230Z,13.20
2019-01-26T17:49:37.393Z,13.00
2019-01-26T17:52:04.116Z,12.80
2019-01-26T17:54:30.795Z,12.70
2019-01-26T17:56:57.527Z,12.40
2019-01-26T17:59:24.640Z,12.30
2019-01-26T18:01:51.405Z,12.20
2019-01-26T18:04:18.577Z,12.20
2019-01-26T18:06:45.334Z,12.20
2019-01-26T18:09:12.115Z,12.20
2019-01-26T18:11:39.174Z,12.10
2019-01-26T18:14:05.939Z,12.00
2019-01-26T18:16:32.669Z,12.20
2019-01-26T18:18:59.315Z,12.40
2019-01-26T18:21:26.047Z,12.70
2019-01-26T18:23:53.114Z,12.80
2019-01-26T18:26:20.245Z,12.90
2019-01-26T18:28:47.020Z,12.90
2019-01-26T18:31:14.134Z,13.00
2019-01-26T18:33:40.855Z,12.80
2019-01-26T18:36:07.578Z,13.20
2019-01-26T18:38:34.312Z,13.50
2019-01-26T18:41:00.961Z,13.70
2019-01-26T18:43:28.156Z,13.70
2019-01-26T18:45:55.083Z,13.60
2019-01-26T18:48:22.147Z,13.70
2019-01-26T18:50:55.895Z,13.90
2019-01-26T18:53:18.574Z,13.80
2019-01-26T18:55:45.763Z,13.30
2019-01-26T18:58:12.955Z,13.10
2019-01-26T19:00:39.670Z,13.00
2019-01-26T19:03:06.473Z,13.20
2019-01-26T19:05:33.152Z,13.30
2019-01-26T19:07:59.872Z,13.50
2019-01-26T19:10:26.864Z,13.60
2019-01-26T19:12:54.247Z,13.60
2019-01-26T19:15:22.621Z,13.20
2019-01-26T19:18:01.739Z,13.10
2019-01-26T19:20:18.094Z,13.00
2019-01-26T19:22:44.873Z,13.00
2019-01-26T19:25:11.898Z,12.90
2019-01-26T19:27:45.181Z,13.10
2019-01-26T19:30:11.927Z,13.20
2019-01-26T19:32:39.863Z,13.20
2019-01-26T19:35:07.163Z,13.40
2019-01-26T19:37:34.397Z,13.80
2019-01-26T19:40:01.172Z,14.10
2019-01-26T19:42:27.847Z,14.10
2019-01-26T19:44:56.503Z,14.30
2019-01-26T19:47:23.580Z,14.50
2019-01-26T19:49:50.754Z,14.60
2019-01-26T19:52:17.498Z,14.60
2019-01-26T19:54:44.478Z,14.50
2019-01-26T19:57:11.207Z,14.30
2019-01-26T19:59:37.937Z,14.30
2019-01-26T20:02:04.598Z,14.30
2019-01-26T20:04:31.296Z,14.40
2019-01-26T20:06:58.069Z,14.50
2019-01-26T20:09:24.780Z,14.70
2019-01-26T20:11:51.457Z,14.60
2019-01-26T20:14:20.844Z,14.70
2019-01-26T20:16:47.945Z,14.80
2019-01-26T20:19:15.103Z,14.80
2019-01-26T20:21:42.265Z,14.90
2019-01-26T20:24:09.444Z,14.90
2019-01-26T20:26:36.546Z,14.90
2019-01-26T20:29:03.296Z,14.70
2019-01-26T20:31:30.109Z,14.60
2019-01-26T20:33:57.312Z,14.30
2019-01-26T20:36:23.992Z,14.20
2019-01-26T20:38:51.064Z,14.30
2019-01-26T20:41:18.385Z,14.60
2019-01-26T20:43:45.070Z,14.60
2019-01-26T20:46:11.876Z,14.60
2019-01-26T20:48:38.666Z,14.50
2019-01-26T20:51:05.355Z,14.70
2019-01-26T20:53:33.085Z,14.80
2019-01-26T20:56:00.311Z,14.80
2019-01-26T20:58:27.485Z,14.70
2019-01-26T21:00:54.732Z,14.90
2019-01-26T21:03:21.684Z,14.80
2019-01-26T21:05:48.400Z,14.60
2019-01-26T21:08:18.119Z,14.60
2019-01-26T21:10:44.804Z,14.60
2019-01-26T21:13:16.239Z,14.60
2019-01-26T21:15:40.352Z,14.80
2019-01-26T21:18:07.006Z,14.90
2019-01-26T21:20:33.716Z,14.80
2019-01-26T21:23:00.451Z,14.70
2019-01-26T21:25:28.389Z,14.50
2019-01-26T21:27:56.000Z,14.40
2019-01-26T21:30:23.141Z,14.40
2019-01-26T21:32:50.226Z,14.60
2019-01-26T21:35:16.964Z,14.70
2019-01-26T21:37:43.686Z,14.70
2019-01-26T21:40:10.755Z,14.60
2019-01-26T21:42:37.779Z,14.60
2019-01-26T21:45:04.973Z,14.60
2019-01-26T21:47:31.974Z,14.60
2019-01-26T21:49:59.031Z,14.50
2019-01-26T21:52:25.731Z,14.50
2019-01-26T21:54:53.319Z,14.50
2019-01-26T21:57:20.329Z,14.50
2019-01-26T21:59:47.452Z,14.50
2019-01-26T22:02:14.591Z,14.50
2019-01-26T22:04:41.876Z,14.70
2019-01-26T22:07:08.791Z,14.90
2019-01-26T22:09:37.058Z,15.00
2019-01-26T22:12:04.649Z,15.20
2019-01-26T22:14:31.420Z,15.40
2019-01-26T22:16:58.626Z,15.20
2019-01-26T22:19:25.791Z,15.10
2019-01-26T22:21:52.510Z,15.20
2019-01-26T22:24:19.228Z,15.30
2019-01-26T22:26:46.066Z,15.30
2019-01-26T22:29:13.242Z,15.20
2019-01-26T22:31:40.402Z,15.10
2019-01-26T22:34:07.545Z,15.10
2019-01-26T22:36:34.411Z,14.90
2019-01-26T22:40:31.658Z,14.90
2019-01-26T22:43:06.942Z,14.90
2019-01-26T22:45:42.331Z,14.80
2019-01-26T22:48:15.858Z,14.80
2019-01-26T22:50:49.679Z,14.80
2019-01-26T22:53:24.526Z,15.00
2019-01-26T22:55:59.924Z,15.00
2019-01-26T22:58:35.017Z,15.10
2019-01-26T23:01:30.642Z,15.10
2019-01-26T23:05:00.974Z,15.10
2019-01-26T23:08:02.352Z,15.00
2019-01-26T23:11:35.282Z,14.80
2019-01-26T23:14:49.189Z,14.80
2019-01-26T23:18:29.470Z,14.80
2019-01-26T23:21:54.646Z,14.80
2019-01-26T23:25:34.346Z,14.80
2019-01-26T23:29:07.141Z,14.80
2019-01-26T23:31:42.091Z,14.70
2019-01-26T23:34:16.472Z,14.60
2019-01-26T23:36:50.991Z,14.70
2019-01-26T23:39:25.010Z,14.80
2019-01-26T23:42:00.032Z,14.80
2019-01-26T23:44:34.967Z,14.80
2019-01-26T23:47:09.529Z,14.80
2019-01-26T23:49:44.359Z,14.90
2019-01-26T23:52:18.300Z,14.70
2019-01-26T23:54:53.763Z,14.60
2019-01-26T23:57:27.591Z,14.80
